Carefree, Indiana
Current Conditions -  °F | °C
As of 7:58 PM on Saturday 22 Nov 2014 (Local Time) from KFTK Reporting Station
Broken Clouds Broken Clouds  
Wind Chill: 51°   Ceiling: 17000
Heat Index: 51°   Visibility: 10mi
Dew Point: 34°   Wind: 7mph
Humidity: 52%   Direction: 150°SSE
Pressure: 30.07"   Gusts: NA
Location:  38.1914°N, 86.3619°W
Report Text: KFTK 230058Z AUTO 15006KT 10SM BKN170 11/01 A3007 RMK AO2 SLP187 T01070011
Loading
Personal Weather Stations






























Interactive Weather Map New forecast layout! Learn more

10-Day Weather Forecast

Advertisements
Track Severe Weather on mobile